This is the latest recevied weather packets stored in our database for station/object DB0HOL-4. If no packets are shown the sender has not sent any weather packets the latest 10 day(s).
| Time | Temp. | Humidity | Pressure | Rain* | Wind** | Luminosity | Snow |
|---|---|---|---|---|---|---|---|
| 1777924597 | 12.22° C | 99% | 1010.8 hPa | 0 mm | - | 0 W/m² | - |
| 1777922797 | 12.78° C | 99% | 1010.8 hPa | 0 mm | - | 0 W/m² | - |
| 1777920997 | 13.33° C | 99% | 1010.8 hPa | 0 mm | - | 4 W/m² | - |
| 1777919197 | 13.33° C | 99% | 1010.4 hPa | 0 mm | - | 29 W/m² | - |
| 1777917397 | 13.33° C | 99% | 1010.1 hPa | 0 mm | - | 68 W/m² | - |
| 1777915597 | 13.89° C | 95% | 1009.8 hPa | 0 mm | - | 164 W/m² | - |
| 1777913796 | 13.89° C | 97% | 1009.8 hPa | 0 mm | - | 377 W/m² | - |
| 1777911997 | 13.89° C | 93% | 1010.1 hPa | 0 mm | - | 382 W/m² | - |
| 1777910197 | 16.11° C | 85% | 1010.1 hPa | 0 mm | - | 177 W/m² | - |
| 1777908396 | 17.78° C | 67% | 1009.4 hPa | 0 mm | - | 295 W/m² | - |
| 1777906597 | 18.89° C | 62% | 1009.8 hPa | 0 mm | - | 113 W/m² | - |
| 1777904797 | 18.89° C | 63% | 1010.1 hPa | 0 mm | - | 233 W/m² | - |
| 1777902996 | 18.89° C | 64% | 1010.1 hPa | 0 mm | - | 683 W/m² | - |
| 1777901197 | 19.44° C | 63% | 1010.4 hPa | 0 mm | - | 756 W/m² | - |
| 1777899397 | 17.78° C | 65% | 1010.8 hPa | 0 mm | - | 194 W/m² | - |
| 1777897596 | 17.78° C | 70% | 1010.8 hPa | 0 mm | - | 844 W/m² | - |
| 1777895797 | 17.22° C | 68% | 1010.8 hPa | 0 mm | - | 654 W/m² | - |
| 1777893997 | 16.67° C | 72% | 1011.1 hPa | 0 mm | - | 173 W/m² | - |
| 1777892197 | 16.67° C | 70% | 1011.1 hPa | 0 mm | - | 684 W/m² | - |
| 1777890396 | 16.11° C | 73% | 1011.1 hPa | 0 mm | - | 782 W/m² | - |
| 1777888597 | 15.56° C | 79% | 1011.5 hPa | 0 mm | - | 276 W/m² | - |
| 1777886797 | 15.56° C | 82% | 1011.5 hPa | 0 mm | - | 795 W/m² | - |
| 1777884998 | 14.44° C | 82% | 1011.5 hPa | 0 mm | - | 303 W/m² | - |
| 1777883196 | 12.78° C | 86% | 1011.5 hPa | 0 mm | - | 172 W/m² | - |
| 1777881397 | 12.78° C | 85% | 1011.1 hPa | 0 mm | - | 118 W/m² | - |
* Rain latest hour (hover to see other rain measurements)
** Current wind speed in m/s (hover to see current wind gust speed)